Impacts TAF Board INFO
FOR SITUATIONAL AWARENESS. NOT TO BE USED FOR FLIGHT PLANNING PURPOSES.
IDs:

KLAX - Los Angeles Intl, CA, US

Issued at 2357 UTC 16 Dec 2017
Updated at 0024 UTC 17 Dec 2017
Potential Impact None Slight Moderate High
Time2353Z 17/01Z 17/02Z 17/03Z 17/04Z 17/05Z 17/06Z 17/07Z 17/08Z 17/09Z 17/10Z 17/11Z 17/12Z 17/13Z>>
Type OBS PRVL PRVL PRVL PRVL PRVL PRVL PRVL PRVL PRVL PRVL PRVL PRVL PRVL
VIS 10 6 6 6 6 6 6 6 6 >6 >6 >6 >6 >6
CIG -- -- -- -- -- -- -- -- -- -- -- -- -- --
Cover FEW SKC SKC SKC SKC SKC SKC SKC SKC SKC SKC SKC SKC SKC
FltCat VFR VFR VFR VFR VFR VFR VFR VFR VFR VFR VFR VFR VFR VFR
WX -- FU FU FU FU FU FU FU FU -- -- -- -- --
WDir 260 230 230 230 VRB VRB VRB VRB VRB 20 20 20 20 20
WSpd 9 8 8 8 3 3 3 3 3 8 8 8 8 8
WGst -- -- -- -- -- -- -- -- -- -- -- -- -- --

Raw TAF
KLAX 162357Z 1700/1806 23008KT 6SM FU SKC
  FM170400 VRB03KT 6SM FU SKC
  FM170900 02008KT P6SM SKC WS010/03035KT
  FM171600 06006KT P6SM SKC WS010/04035KT
  FM172100 27008KT 6SM FU SKC


Raw METAR
KLAX 162353Z 26009KT 10SM FEW025 17/12 A2971 RMK AO2 SLP061 T01670122 10189 20167 53010
KLAX 162253Z 20006KT 10SM FEW025 FEW150 18/11 A2970 RMK AO2 SLP056 T01830106
KLAX 162153Z 17004KT 10SM FEW025 FEW150 18/11 A2969 RMK AO2 SLP053 T01830106

METAR Board
Radar Display
Forecast Discussion

FOR SITUATIONAL AWARENESS. NOT TO BE USED FOR FLIGHT PLANNING PURPOSES.